sensor_id;sensor_type;location;lat;lon;timestamp;pressure;altitude;pressure_sealevel;temperature;humidity
7180;BME280;3631;42.152;24.756;2023-05-29T00:00:59;85531.63;;;-144.30;100.00
7180;BME280;3631;42.152;24.756;2023-05-29T00:03:26;85579.31;;;-144.30;100.00
7180;BME280;3631;42.152;24.756;2023-05-29T00:05:54;85553.47;;;-144.30;100.00
7180;BME280;3631;42.152;24.756;2023-05-29T00:08:22;85565.41;;;-144.30;100.00
7180;BME280;3631;42.152;24.756;2023-05-29T00:10:49;85587.28;;;-144.30;100.00
7180;BME280;3631;42.152;24.756;2023-05-29T00:13:16;85569.38;;;-144.30;100.00
7180;BME280;3631;42.152;24.756;2023-05-29T00:15:43;85575.34;;;-144.30;100.00
7180;BME280;3631;42.152;24.756;2023-05-29T00:18:10;85565.41;;;-144.30;100.00
7180;BME280;3631;42.152;24.756;2023-05-29T00:20:36;85525.66;;;-144.30;100.00
7180;BME280;3631;42.152;24.756;2023-05-29T00:23:03;85565.41;;;-144.30;100.00
7180;BME280;3631;42.152;24.756;2023-05-29T00:25:32;85549.50;;;-144.30;100.00
7180;BME280;3631;42.152;24.756;2023-05-29T00:27:59;85561.44;;;-144.30;100.00
7180;BME280;3631;42.152;24.756;2023-05-29T00:30:26;85539.56;;;-144.30;100.00
7180;BME280;3631;42.152;24.756;2023-05-29T00:32:53;85591.25;;;-144.30;100.00
7180;BME280;3631;42.152;24.756;2023-05-29T00:35:20;85557.47;;;-144.30;100.00
7180;BME280;3631;42.152;24.756;2023-05-29T00:37:47;85563.41;;;-144.30;100.00
7180;BME280;3631;42.152;24.756;2023-05-29T00:40:14;85533.59;;;-144.30;100.00
7180;BME280;3631;42.152;24.756;2023-05-29T00:42:42;85519.69;;;-144.30;100.00
7180;BME280;3631;42.152;24.756;2023-05-29T00:45:10;85541.56;;;-144.30;100.00
7180;BME280;3631;42.152;24.756;2023-05-29T00:47:39;85543.53;;;-144.30;100.00
7180;BME280;3631;42.152;24.756;2023-05-29T00:50:08;85535.59;;;-144.30;100.00
7180;BME280;3631;42.152;24.756;2023-05-29T00:52:37;85539.56;;;-144.30;100.00
7180;BME280;3631;42.152;24.756;2023-05-29T00:55:05;85543.53;;;-144.30;100.00
7180;BME280;3631;42.152;24.756;2023-05-29T00:57:33;85559.44;;;-144.30;100.00
7180;BME280;3631;42.152;24.756;2023-05-29T01:00:02;85527.63;;;-144.30;100.00
7180;BME280;3631;42.152;24.756;2023-05-29T01:02:30;85545.53;;;-144.30;100.00
7180;BME280;3631;42.152;24.756;2023-05-29T01:04:57;85555.47;;;-144.30;100.00
7180;BME280;3631;42.152;24.756;2023-05-29T01:07:24;85577.34;;;-144.30;100.00
7180;BME280;3631;42.152;24.756;2023-05-29T01:09:52;85555.47;;;-144.30;100.00
7180;BME280;3631;42.152;24.756;2023-05-29T01:12:26;85551.50;;;-144.30;100.00
7180;BME280;3631;42.152;24.756;2023-05-29T01:15:07;85575.34;;;-144.30;100.00
7180;BME280;3631;42.152;24.756;2023-05-29T01:17:45;85573.38;;;-144.30;100.00
7180;BME280;3631;42.152;24.756;2023-05-29T01:20:25;85575.34;;;-144.30;100.00
7180;BME280;3631;42.152;24.756;2023-05-29T01:23:27;85579.31;;;-144.30;100.00
7180;BME280;3631;42.152;24.756;2023-05-29T01:26:08;85561.44;;;-144.30;100.00
7180;BME280;3631;42.152;24.756;2023-05-29T01:28:42;85579.31;;;-144.30;100.00
7180;BME280;3631;42.152;24.756;2023-05-29T01:31:11;85575.34;;;-144.30;100.00
7180;BME280;3631;42.152;24.756;2023-05-29T01:33:39;85491.84;;;-144.30;100.00
7180;BME280;3631;42.152;24.756;2023-05-29T01:36:07;85551.50;;;-144.30;100.00
7180;BME280;3631;42.152;24.756;2023-05-29T01:38:36;85527.63;;;-144.30;100.00
7180;BME280;3631;42.152;24.756;2023-05-29T01:41:03;85575.34;;;-144.30;100.00
7180;BME280;3631;42.152;24.756;2023-05-29T01:43:31;85555.47;;;-144.30;100.00
7180;BME280;3631;42.152;24.756;2023-05-29T01:45:59;85547.53;;;-144.30;100.00
7180;BME280;3631;42.152;24.756;2023-05-29T01:48:27;85682.72;;;-144.30;100.00
7180;BME280;3631;42.152;24.756;2023-05-29T01:50:54;85521.69;;;-144.30;100.00
7180;BME280;3631;42.152;24.756;2023-05-29T01:53:21;85541.56;;;-144.30;100.00
7180;BME280;3631;42.152;24.756;2023-05-29T01:55:49;85557.47;;;-144.30;100.00
7180;BME280;3631;42.152;24.756;2023-05-29T01:58:17;85774.16;;;-144.30;100.00
7180;BME280;3631;42.152;24.756;2023-05-29T02:00:47;85444.16;;;-144.30;100.00
7180;BME280;3631;42.152;24.756;2023-05-29T02:03:15;85519.69;;;-144.30;100.00
7180;BME280;3631;42.152;24.756;2023-05-29T02:05:42;85559.44;;;-144.30;100.00
7180;BME280;3631;42.152;24.756;2023-05-29T02:08:09;85531.63;;;-144.30;100.00
7180;BME280;3631;42.152;24.756;2023-05-29T02:10:37;85513.72;;;-144.30;100.00
7180;BME280;3631;42.152;24.756;2023-05-29T02:13:04;85577.34;;;-144.30;100.00
7180;BME280;3631;42.152;24.756;2023-05-29T02:15:31;85509.75;;;-144.30;100.00
7180;BME280;3631;42.152;24.756;2023-05-29T02:17:58;85575.34;;;-144.30;100.00
7180;BME280;3631;42.152;24.756;2023-05-29T02:20:27;85571.38;;;-144.30;100.00
7180;BME280;3631;42.152;24.756;2023-05-29T02:22:54;85565.41;;;-144.30;100.00
7180;BME280;3631;42.152;24.756;2023-05-29T02:25:21;85559.44;;;-144.30;100.00
7180;BME280;3631;42.152;24.756;2023-05-29T02:27:48;85563.41;;;-144.30;100.00
7180;BME280;3631;42.152;24.756;2023-05-29T02:30:15;85551.50;;;-144.30;100.00
7180;BME280;3631;42.152;24.756;2023-05-29T02:32:42;85589.28;;;-144.30;100.00
7180;BME280;3631;42.152;24.756;2023-05-29T02:35:09;85587.28;;;-144.30;100.00
7180;BME280;3631;42.152;24.756;2023-05-29T02:37:37;85579.31;;;-144.30;100.00
7180;BME280;3631;42.152;24.756;2023-05-29T02:40:05;85573.38;;;-144.30;100.00
7180;BME280;3631;42.152;24.756;2023-05-29T02:42:34;85595.22;;;-144.30;100.00
7180;BME280;3631;42.152;24.756;2023-05-29T02:45:01;85583.31;;;-144.30;100.00
7180;BME280;3631;42.152;24.756;2023-05-29T02:47:28;85595.22;;;-144.30;100.00
7180;BME280;3631;42.152;24.756;2023-05-29T02:49:54;85553.47;;;-144.30;100.00
7180;BME280;3631;42.152;24.756;2023-05-29T02:52:21;85555.47;;;-144.30;100.00
7180;BME280;3631;42.152;24.756;2023-05-29T02:54:50;85557.47;;;-144.30;100.00
7180;BME280;3631;42.152;24.756;2023-05-29T02:57:17;85531.63;;;-144.30;100.00
7180;BME280;3631;42.152;24.756;2023-05-29T02:59:44;85563.41;;;-144.30;100.00
7180;BME280;3631;42.152;24.756;2023-05-29T03:02:11;85573.38;;;-144.30;100.00
7180;BME280;3631;42.152;24.756;2023-05-29T03:04:38;85567.41;;;-144.30;100.00
7180;BME280;3631;42.152;24.756;2023-05-29T03:07:05;85487.88;;;-144.30;100.00
7180;BME280;3631;42.152;24.756;2023-05-29T03:09:34;85535.59;;;-144.30;100.00
7180;BME280;3631;42.152;24.756;2023-05-29T03:12:03;85535.59;;;-144.30;100.00
7180;BME280;3631;42.152;24.756;2023-05-29T03:14:30;85547.53;;;-144.30;100.00
7180;BME280;3631;42.152;24.756;2023-05-29T03:17:01;85555.47;;;-144.30;100.00
7180;BME280;3631;42.152;24.756;2023-05-29T03:19:28;85569.38;;;-144.30;100.00
7180;BME280;3631;42.152;24.756;2023-05-29T03:21:55;85559.44;;;-144.30;100.00
7180;BME280;3631;42.152;24.756;2023-05-29T03:24:21;85547.53;;;-144.30;100.00
7180;BME280;3631;42.152;24.756;2023-05-29T03:26:50;85551.50;;;-144.30;100.00
7180;BME280;3631;42.152;24.756;2023-05-29T03:29:18;85551.50;;;-144.30;100.00
7180;BME280;3631;42.152;24.756;2023-05-29T03:31:45;85567.41;;;-144.30;100.00
7180;BME280;3631;42.152;24.756;2023-05-29T03:34:12;85545.53;;;-144.30;100.00
7180;BME280;3631;42.152;24.756;2023-05-29T03:36:39;85587.28;;;-144.30;100.00
7180;BME280;3631;42.152;24.756;2023-05-29T03:39:06;85587.28;;;-144.30;100.00
7180;BME280;3631;42.152;24.756;2023-05-29T03:41:33;85589.28;;;-144.30;100.00
7180;BME280;3631;42.152;24.756;2023-05-29T03:44:00;85575.34;;;-144.30;100.00
7180;BME280;3631;42.152;24.756;2023-05-29T03:46:28;85587.28;;;-144.30;100.00
7180;BME280;3631;42.152;24.756;2023-05-29T03:48:55;85573.38;;;-144.30;100.00
7180;BME280;3631;42.152;24.756;2023-05-29T03:51:22;85543.53;;;-144.30;100.00
7180;BME280;3631;42.152;24.756;2023-05-29T03:53:49;85555.47;;;-144.30;100.00
7180;BME280;3631;42.152;24.756;2023-05-29T03:56:16;85545.53;;;-144.30;100.00
7180;BME280;3631;42.152;24.756;2023-05-29T03:58:42;85549.50;;;-144.30;100.00
7180;BME280;3631;42.152;24.756;2023-05-29T04:01:09;85557.47;;;-144.30;100.00
7180;BME280;3631;42.152;24.756;2023-05-29T04:03:38;85543.53;;;-144.30;100.00
7180;BME280;3631;42.152;24.756;2023-05-29T04:06:05;85537.59;;;-144.30;100.00
7180;BME280;3631;42.152;24.756;2023-05-29T04:08:32;85460.03;;;-144.30;100.00
7180;BME280;3631;42.152;24.756;2023-05-29T04:10:59;85549.50;;;-144.30;100.00
7180;BME280;3631;42.152;24.756;2023-05-29T04:13:26;85503.78;;;-144.30;100.00
7180;BME280;3631;42.152;24.756;2023-05-29T04:15:54;85539.56;;;-144.30;100.00
7180;BME280;3631;42.152;24.756;2023-05-29T04:18:21;85567.41;;;-144.30;100.00
7180;BME280;3631;42.152;24.756;2023-05-29T04:20:49;85551.50;;;-144.30;100.00
7180;BME280;3631;42.152;24.756;2023-05-29T04:23:16;85507.75;;;-144.30;100.00
7180;BME280;3631;42.152;24.756;2023-05-29T04:25:43;85515.72;;;-144.30;100.00
7180;BME280;3631;42.152;24.756;2023-05-29T04:28:10;85511.75;;;-144.30;100.00
7180;BME280;3631;42.152;24.756;2023-05-29T04:30:37;85519.69;;;-144.30;100.00
7180;BME280;3631;42.152;24.756;2023-05-29T04:33:04;85495.84;;;-144.30;100.00
7180;BME280;3631;42.152;24.756;2023-05-29T04:35:31;85483.91;;;-144.30;100.00
7180;BME280;3631;42.152;24.756;2023-05-29T04:37:59;85454.09;;;-144.30;100.00
7180;BME280;3631;42.152;24.756;2023-05-29T04:40:26;85499.81;;;-144.30;100.00
7180;BME280;3631;42.152;24.756;2023-05-29T04:42:53;85493.84;;;-144.30;100.00
7180;BME280;3631;42.152;24.756;2023-05-29T04:45:20;85470.00;;;-144.30;100.00
7180;BME280;3631;42.152;24.756;2023-05-29T04:47:47;85464.03;;;-144.30;100.00
7180;BME280;3631;42.152;24.756;2023-05-29T04:50:16;85444.16;;;-144.30;100.00
7180;BME280;3631;42.152;24.756;2023-05-29T04:52:43;85464.03;;;-144.30;100.00
7180;BME280;3631;42.152;24.756;2023-05-29T04:55:12;85430.22;;;-144.30;100.00
7180;BME280;3631;42.152;24.756;2023-05-29T04:57:40;85487.88;;;-144.30;100.00
7180;BME280;3631;42.152;24.756;2023-05-29T05:00:08;85462.03;;;-144.30;100.00
7180;BME280;3631;42.152;24.756;2023-05-29T05:02:40;85462.03;;;-144.30;100.00
7180;BME280;3631;42.152;24.756;2023-05-29T05:05:08;85440.16;;;-144.30;100.00
7180;BME280;3631;42.152;24.756;2023-05-29T05:07:35;85460.03;;;-144.30;100.00
7180;BME280;3631;42.152;24.756;2023-05-29T05:10:02;85471.97;;;-144.30;100.00
7180;BME280;3631;42.152;24.756;2023-05-29T05:12:30;85430.22;;;-144.30;100.00
7180;BME280;3631;42.152;24.756;2023-05-29T05:14:57;85452.09;;;-144.30;100.00
7180;BME280;3631;42.152;24.756;2023-05-29T05:17:24;85428.25;;;-144.30;100.00
7180;BME280;3631;42.152;24.756;2023-05-29T05:19:53;85468.00;;;-144.30;100.00
7180;BME280;3631;42.152;24.756;2023-05-29T05:22:20;85450.09;;;-144.30;100.00
7180;BME280;3631;42.152;24.756;2023-05-29T05:24:47;85458.06;;;-144.30;100.00
7180;BME280;3631;42.152;24.756;2023-05-29T05:27:14;85426.25;;;-144.30;99.74
7180;BME280;3631;42.152;24.756;2023-05-29T05:29:42;85422.28;;;-144.30;98.78
7180;BME280;3631;42.152;24.756;2023-05-29T05:32:09;85442.16;;;-144.30;98.47
7180;BME280;3631;42.152;24.756;2023-05-29T05:34:35;85402.41;;;-144.30;98.55
7180;BME280;3631;42.152;24.756;2023-05-29T05:37:03;85426.25;;;-144.30;98.63
7180;BME280;3631;42.152;24.756;2023-05-29T05:39:29;85428.25;;;-144.30;98.25
7180;BME280;3631;42.152;24.756;2023-05-29T05:41:56;85414.31;;;-144.30;97.94
7180;BME280;3631;42.152;24.756;2023-05-29T05:44:23;85398.41;;;-144.30;97.46
7180;BME280;3631;42.152;24.756;2023-05-29T05:46:51;85364.63;;;-144.30;96.50
7180;BME280;3631;42.152;24.756;2023-05-29T05:49:20;85358.66;;;-144.30;96.17
7180;BME280;3631;42.152;24.756;2023-05-29T05:51:46;85368.59;;;-144.30;94.96
7180;BME280;3631;42.152;24.756;2023-05-29T05:54:13;85354.69;;;-144.30;94.48
7180;BME280;3631;42.152;24.756;2023-05-29T05:56:40;85336.78;;;-144.30;94.19
7180;BME280;3631;42.152;24.756;2023-05-29T05:59:07;85346.72;;;-144.30;94.36
7180;BME280;3631;42.152;24.756;2023-05-29T06:01:34;85314.94;;;-144.30;94.15
7180;BME280;3631;42.152;24.756;2023-05-29T06:04:03;85324.88;;;-144.30;94.21
7180;BME280;3631;42.152;24.756;2023-05-29T06:06:30;85308.97;;;-144.30;94.03
7180;BME280;3631;42.152;24.756;2023-05-29T06:08:57;85255.28;;;-144.30;94.23
7180;BME280;3631;42.152;24.756;2023-05-29T06:11:24;85193.66;;;-144.30;93.70
7180;BME280;3631;42.152;24.756;2023-05-29T06:13:52;85855.69;;;-144.30;91.50
7180;BME280;3631;42.152;24.756;2023-05-29T06:16:19;85175.78;;;-144.30;90.12
7180;BME280;3631;42.152;24.756;2023-05-29T06:18:46;85126.09;;;-144.30;89.76
7180;BME280;3631;42.152;24.756;2023-05-29T06:21:14;85124.09;;;-144.30;89.16
7180;BME280;3631;42.152;24.756;2023-05-29T06:23:41;85122.09;;;-144.30;88.62
7180;BME280;3631;42.152;24.756;2023-05-29T06:26:08;85145.97;;;-144.30;88.27
7180;BME280;3631;42.152;24.756;2023-05-29T06:28:37;85138.00;;;-144.30;87.97
7180;BME280;3631;42.152;24.756;2023-05-29T06:31:04;85128.06;;;-144.30;87.90
7180;BME280;3631;42.152;24.756;2023-05-29T06:33:30;85106.22;;;-144.30;88.06
7180;BME280;3631;42.152;24.756;2023-05-29T06:35:57;85120.13;;;-144.30;88.33
7180;BME280;3631;42.152;24.756;2023-05-29T06:38:26;85114.16;;;-144.30;88.28
7180;BME280;3631;42.152;24.756;2023-05-29T06:40:53;85134.03;;;-144.30;88.62
7180;BME280;3631;42.152;24.756;2023-05-29T06:43:19;85149.94;;;-144.30;88.06
7180;BME280;3631;42.152;24.756;2023-05-29T06:45:46;85018.75;;;-144.30;88.45
7180;BME280;3631;42.152;24.756;2023-05-29T06:48:13;85090.31;;;-144.30;87.40
7180;BME280;3631;42.152;24.756;2023-05-29T06:50:40;85068.44;;;-144.30;87.29
7180;BME280;3631;42.152;24.756;2023-05-29T06:53:07;85030.66;;;-144.30;87.12
7180;BME280;3631;42.152;24.756;2023-05-29T06:55:35;84998.88;;;-144.30;86.74
7180;BME280;3631;42.152;24.756;2023-05-29T06:58:02;84990.91;;;-144.30;86.39
7180;BME280;3631;42.152;24.756;2023-05-29T07:00:29;84971.03;;;-144.30;85.76
7180;BME280;3631;42.152;24.756;2023-05-29T07:02:56;84915.38;;;-144.30;84.18
7180;BME280;3631;42.152;24.756;2023-05-29T07:05:23;84879.59;;;-144.30;83.60
7180;BME280;3631;42.152;24.756;2023-05-29T07:07:49;84808.06;;;-144.30;81.74
7180;BME280;3631;42.152;24.756;2023-05-29T07:10:16;84760.34;;;-144.30;79.60
7180;BME280;3631;42.152;24.756;2023-05-29T07:12:45;84728.56;;;-144.30;78.93
7180;BME280;3631;42.152;24.756;2023-05-29T07:15:12;84744.44;;;-144.30;78.12
7180;BME280;3631;42.152;24.756;2023-05-29T07:17:38;84744.44;;;-144.30;78.05
7180;BME280;3631;42.152;24.756;2023-05-29T07:20:07;84784.19;;;-144.30;78.11
7180;BME280;3631;42.152;24.756;2023-05-29T07:22:34;84788.19;;;-144.30;78.20
7180;BME280;3631;42.152;24.756;2023-05-29T07:25:01;84823.94;;;-144.30;78.44
7180;BME280;3631;42.152;24.756;2023-05-29T07:27:29;84804.06;;;-144.30;79.02
7180;BME280;3631;42.152;24.756;2023-05-29T07:29:57;84816.00;;;-144.30;78.37
7180;BME280;3631;42.152;24.756;2023-05-29T07:32:24;84806.06;;;-144.30;77.90
7180;BME280;3631;42.152;24.756;2023-05-29T07:34:51;84796.13;;;-144.30;77.91
7180;BME280;3631;42.152;24.756;2023-05-29T07:37:18;84784.19;;;-144.30;77.98
7180;BME280;3631;42.152;24.756;2023-05-29T07:39:45;84768.31;;;-144.30;77.29
7180;BME280;3631;42.152;24.756;2023-05-29T07:42:12;84752.41;;;-144.30;76.90
7180;BME280;3631;42.152;24.756;2023-05-29T07:44:39;84768.31;;;-144.30;77.07
7180;BME280;3631;42.152;24.756;2023-05-29T07:47:08;84744.44;;;-144.30;76.79
7180;BME280;3631;42.152;24.756;2023-05-29T07:49:35;84698.75;;;-144.30;75.95
7180;BME280;3631;42.152;24.756;2023-05-29T07:52:02;84732.53;;;-144.30;76.94
7180;BME280;3631;42.152;24.756;2023-05-29T07:54:30;84716.63;;;-144.30;76.57
7180;BME280;3631;42.152;24.756;2023-05-29T07:56:58;84738.47;;;-144.30;76.83
7180;BME280;3631;42.152;24.756;2023-05-29T07:59:25;84724.56;;;-144.30;76.89
7180;BME280;3631;42.152;24.756;2023-05-29T08:01:52;84682.84;;;-144.30;76.69
7180;BME280;3631;42.152;24.756;2023-05-29T08:04:20;84672.91;;;-144.30;77.01
7180;BME280;3631;42.152;24.756;2023-05-29T08:06:47;84700.72;;;-144.30;76.55
7180;BME280;3631;42.152;24.756;2023-05-29T08:09:14;84609.31;;;-144.30;76.28
7180;BME280;3631;42.152;24.756;2023-05-29T08:11:41;84674.88;;;-144.30;76.67
7180;BME280;3631;42.152;24.756;2023-05-29T08:14:07;84660.97;;;-144.30;76.90
7180;BME280;3631;42.152;24.756;2023-05-29T08:16:34;84668.94;;;-144.30;76.82
7180;BME280;3631;42.152;24.756;2023-05-29T08:19:01;84645.06;;;-144.30;76.44
7180;BME280;3631;42.152;24.756;2023-05-29T08:21:30;84595.38;;;-144.30;75.72
7180;BME280;3631;42.152;24.756;2023-05-29T08:23:58;84601.34;;;-144.30;76.29
7180;BME280;3631;42.152;24.756;2023-05-29T08:26:25;84585.44;;;-144.30;74.07
7180;BME280;3631;42.152;24.756;2023-05-29T08:28:52;84519.88;;;-144.30;73.70
7180;BME280;3631;42.152;24.756;2023-05-29T08:31:20;84406.59;;;-144.30;73.10
7180;BME280;3631;42.152;24.756;2023-05-29T08:33:49;84311.19;;;-144.30;72.35
7180;BME280;3631;42.152;24.756;2023-05-29T08:36:16;84358.88;;;-144.30;69.37
7180;BME280;3631;42.152;24.756;2023-05-29T08:38:47;84271.44;;;-144.30;68.87
7180;BME280;3631;42.152;24.756;2023-05-29T08:41:20;84231.69;;;-144.30;67.65
7180;BME280;3631;42.152;24.756;2023-05-29T08:43:48;84227.72;;;-144.30;67.66
7180;BME280;3631;42.152;24.756;2023-05-29T08:46:18;84255.53;;;-144.30;63.86
7180;BME280;3631;42.152;24.756;2023-05-29T08:48:48;84229.72;;;-144.30;61.86
7180;BME280;3631;42.152;24.756;2023-05-29T08:51:16;84267.47;;;-144.30;61.59
7180;BME280;3631;42.152;24.756;2023-05-29T08:53:47;84255.53;;;-144.30;60.65
7180;BME280;3631;42.152;24.756;2023-05-29T08:56:14;84195.94;;;-144.30;60.76
7180;BME280;3631;42.152;24.756;2023-05-29T08:58:41;84182.00;;;-144.30;59.53
7180;BME280;3631;42.152;24.756;2023-05-29T09:01:09;84160.16;;;-144.30;59.05
7180;BME280;3631;42.152;24.756;2023-05-29T09:03:36;84142.28;;;-144.30;59.15
7180;BME280;3631;42.152;24.756;2023-05-29T09:06:04;84191.94;;;-144.30;58.54
7180;BME280;3631;42.152;24.756;2023-05-29T09:08:33;84203.88;;;-144.30;58.72
7180;BME280;3631;42.152;24.756;2023-05-29T09:11:01;84275.41;;;-144.30;59.62
7180;BME280;3631;42.152;24.756;2023-05-29T09:13:28;84213.81;;;-144.30;59.53
7180;BME280;3631;42.152;24.756;2023-05-29T09:15:57;84263.50;;;-144.30;59.40
7180;BME280;3631;42.152;24.756;2023-05-29T09:18:28;84271.44;;;-144.30;59.82
7180;BME280;3631;42.152;24.756;2023-05-29T09:20:55;84259.50;;;-144.30;59.52
7180;BME280;3631;42.152;24.756;2023-05-29T09:23:22;84243.63;;;-144.30;59.33
7180;BME280;3631;42.152;24.756;2023-05-29T09:25:53;84273.44;;;-144.30;59.03
7180;BME280;3631;42.152;24.756;2023-05-29T09:28:22;84317.16;;;-144.30;59.93
7180;BME280;3631;42.152;24.756;2023-05-29T09:30:52;84219.78;;;-144.30;59.51
7180;BME280;3631;42.152;24.756;2023-05-29T09:33:19;84311.19;;;-144.30;59.47
7180;BME280;3631;42.152;24.756;2023-05-29T09:35:48;84388.69;;;-144.30;59.46
7180;BME280;3631;42.152;24.756;2023-05-29T09:38:16;84354.91;;;-144.30;60.72
7180;BME280;3631;42.152;24.756;2023-05-29T09:40:43;84422.47;;;-144.30;60.99
7180;BME280;3631;42.152;24.756;2023-05-29T09:43:13;84408.56;;;-144.30;60.23
7180;BME280;3631;42.152;24.756;2023-05-29T09:45:44;84414.53;;;-144.30;59.93
7180;BME280;3631;42.152;24.756;2023-05-29T09:48:13;84436.38;;;-144.30;60.00
7180;BME280;3631;42.152;24.756;2023-05-29T09:50:41;84442.34;;;-144.30;60.41
7180;BME280;3631;42.152;24.756;2023-05-29T09:53:19;84430.44;;;-144.30;60.11
7180;BME280;3631;42.152;24.756;2023-05-29T09:55:47;84430.44;;;-144.30;59.98
7180;BME280;3631;42.152;24.756;2023-05-29T09:58:17;84400.63;;;-144.30;60.77
7180;BME280;3631;42.152;24.756;2023-05-29T10:00:46;84370.81;;;-144.30;60.77
7180;BME280;3631;42.152;24.756;2023-05-29T10:03:14;84370.81;;;-144.30;59.44
7180;BME280;3631;42.152;24.756;2023-05-29T10:05:42;84370.81;;;-144.30;60.14
7180;BME280;3631;42.152;24.756;2023-05-29T10:08:12;84392.66;;;-144.30;59.61
7180;BME280;3631;42.152;24.756;2023-05-29T10:10:42;84311.19;;;-144.30;58.33
7180;BME280;3631;42.152;24.756;2023-05-29T10:13:11;84325.09;;;-144.30;58.71
7180;BME280;3631;42.152;24.756;2023-05-29T10:15:41;84315.16;;;-144.30;58.67
7180;BME280;3631;42.152;24.756;2023-05-29T10:18:14;84287.34;;;-144.30;58.18
7180;BME280;3631;42.152;24.756;2023-05-29T10:20:47;84279.38;;;-144.30;58.14
7180;BME280;3631;42.152;24.756;2023-05-29T10:23:19;84275.41;;;-144.30;57.68
7180;BME280;3631;42.152;24.756;2023-05-29T10:25:49;84253.56;;;-144.30;56.68
7180;BME280;3631;42.152;24.756;2023-05-29T10:28:18;84223.75;;;-144.30;55.60
7180;BME280;3631;42.152;24.756;2023-05-29T10:30:48;84229.72;;;-144.30;54.90
7180;BME280;3631;42.152;24.756;2023-05-29T10:33:33;84263.50;;;-144.30;54.18
7180;BME280;3631;42.152;24.756;2023-05-29T10:36:09;84253.56;;;-144.30;54.64
7180;BME280;3631;42.152;24.756;2023-05-29T10:38:37;84237.66;;;-144.30;55.57
7180;BME280;3631;42.152;24.756;2023-05-29T10:41:28;84239.66;;;-144.30;55.95
7180;BME280;3631;42.152;24.756;2023-05-29T10:43:56;84176.06;;;-144.30;56.31
7180;BME280;3631;42.152;24.756;2023-05-29T10:47:02;84191.94;;;-144.30;56.08
7180;BME280;3631;42.152;24.756;2023-05-29T10:49:30;84193.94;;;-144.30;56.25
7180;BME280;3631;42.152;24.756;2023-05-29T10:51:58;84182.00;;;-144.30;56.21
7180;BME280;3631;42.152;24.756;2023-05-29T10:54:26;84213.81;;;-144.30;55.83
7180;BME280;3631;42.152;24.756;2023-05-29T10:56:55;84164.13;;;-144.30;55.07
7180;BME280;3631;42.152;24.756;2023-05-29T10:59:23;84187.97;;;-144.30;55.10
7180;BME280;3631;42.152;24.756;2023-05-29T11:01:53;84092.59;;;-144.30;54.96
7180;BME280;3631;42.152;24.756;2023-05-29T11:04:26;84124.38;;;-144.30;54.45
7180;BME280;3631;42.152;24.756;2023-05-29T11:06:56;84158.16;;;-144.30;54.23
7180;BME280;3631;42.152;24.756;2023-05-29T11:09:27;84140.28;;;-144.30;53.41
7180;BME280;3631;42.152;24.756;2023-05-29T11:12:15;84056.81;;;-144.30;53.52
7180;BME280;3631;42.152;24.756;2023-05-29T11:14:54;83929.66;;;-144.30;53.55
7180;BME280;3631;42.152;24.756;2023-05-29T11:17:32;84031.00;;;-144.30;51.93
7180;BME280;3631;42.152;24.756;2023-05-29T11:20:02;84050.84;;;-144.30;52.06
7180;BME280;3631;42.152;24.756;2023-05-29T11:22:56;84029.00;;;-144.30;53.03
7180;BME280;3631;42.152;24.756;2023-05-29T11:25:27;84046.88;;;-144.30;52.13
7180;BME280;3631;42.152;24.756;2023-05-29T11:27:54;84048.88;;;-144.30;52.31
7180;BME280;3631;42.152;24.756;2023-05-29T11:30:21;84104.50;;;-144.30;53.15
7180;BME280;3631;42.152;24.756;2023-05-29T11:32:48;84092.59;;;-144.30;53.95
7180;BME280;3631;42.152;24.756;2023-05-29T11:35:19;84042.91;;;-144.30;54.08
7180;BME280;3631;42.152;24.756;2023-05-29T11:37:49;84068.75;;;-144.30;54.23
7180;BME280;3631;42.152;24.756;2023-05-29T11:40:16;84084.66;;;-144.30;54.28
7180;BME280;3631;42.152;24.756;2023-05-29T11:42:44;84088.63;;;-144.30;53.95
7180;BME280;3631;42.152;24.756;2023-05-29T11:45:15;84052.84;;;-144.30;54.45
7180;BME280;3631;42.152;24.756;2023-05-29T11:47:52;84094.56;;;-144.30;53.89
7180;BME280;3631;42.152;24.756;2023-05-29T11:50:20;84070.72;;;-144.30;53.95
7180;BME280;3631;42.152;24.756;2023-05-29T11:52:48;83999.19;;;-144.30;54.26
7180;BME280;3631;42.152;24.756;2023-05-29T11:55:17;84052.84;;;-144.30;53.76
7180;BME280;3631;42.152;24.756;2023-05-29T11:57:45;84116.44;;;-144.30;54.40
7180;BME280;3631;42.152;24.756;2023-05-29T12:00:13;84116.44;;;-144.30;54.24
7180;BME280;3631;42.152;24.756;2023-05-29T12:02:41;84106.50;;;-144.30;55.16
7180;BME280;3631;42.152;24.756;2023-05-29T12:05:09;84058.81;;;-144.30;55.35
7180;BME280;3631;42.152;24.756;2023-05-29T12:07:46;84072.72;;;-144.30;54.42
7180;BME280;3631;42.152;24.756;2023-05-29T12:10:17;84056.81;;;-144.30;54.84
7180;BME280;3631;42.152;24.756;2023-05-29T12:12:47;84052.84;;;-144.30;53.76
7180;BME280;3631;42.152;24.756;2023-05-29T12:15:14;84120.41;;;-144.30;53.83
7180;BME280;3631;42.152;24.756;2023-05-29T12:17:43;84062.78;;;-144.30;53.44
7180;BME280;3631;42.152;24.756;2023-05-29T12:20:11;84029.00;;;-144.30;53.50
7180;BME280;3631;42.152;24.756;2023-05-29T12:22:40;84019.06;;;-144.30;53.27
7180;BME280;3631;42.152;24.756;2023-05-29T12:25:09;84021.06;;;-144.30;52.88
7180;BME280;3631;42.152;24.756;2023-05-29T12:27:39;83997.22;;;-144.30;52.51
7180;BME280;3631;42.152;24.756;2023-05-29T12:30:10;84040.91;;;-144.30;51.85
7180;BME280;3631;42.152;24.756;2023-05-29T12:32:38;84042.91;;;-144.30;52.22
7180;BME280;3631;42.152;24.756;2023-05-29T12:35:13;84013.09;;;-144.30;52.10
7180;BME280;3631;42.152;24.756;2023-05-29T12:37:44;84034.97;;;-144.30;52.37
7180;BME280;3631;42.152;24.756;2023-05-29T12:40:16;84017.06;;;-144.30;52.71
7180;BME280;3631;42.152;24.756;2023-05-29T12:42:45;84054.84;;;-144.30;52.66
7180;BME280;3631;42.152;24.756;2023-05-29T12:45:12;84094.56;;;-144.30;52.98
7180;BME280;3631;42.152;24.756;2023-05-29T12:47:55;84122.41;;;-144.30;52.85
7180;BME280;3631;42.152;24.756;2023-05-29T12:50:24;84162.16;;;-144.30;53.09
7180;BME280;3631;42.152;24.756;2023-05-29T12:52:58;84144.25;;;-144.30;53.84